createdAt,value
2022-10-21T00:01:08.663Z,9.82
2022-10-21T00:03:38.782Z,7.95
2022-10-21T00:06:07.340Z,8.50
2022-10-21T00:08:35.696Z,6.53
2022-10-21T00:11:06.440Z,7.07
2022-10-21T00:13:36.372Z,5.40
2022-10-21T00:16:07.400Z,8.20
2022-10-21T00:18:38.321Z,7.35
2022-10-21T00:21:08.572Z,6.43
2022-10-21T00:23:36.924Z,7.82
2022-10-21T00:26:05.273Z,6.60
2022-10-21T00:28:33.841Z,4.85
2022-10-21T00:31:01.910Z,6.57
2022-10-21T00:33:30.070Z,5.85
2022-10-21T00:36:03.169Z,7.53
2022-10-21T00:38:32.189Z,9.93
2022-10-21T00:41:00.450Z,7.65
2022-10-21T00:43:29.189Z,8.35
2022-10-21T00:46:01.670Z,10.63
2022-10-21T00:48:34.724Z,7.10
2022-10-21T00:51:07.921Z,7.03
2022-10-21T00:53:39.761Z,6.03
2022-10-21T00:58:47.980Z,6.97
2022-10-21T01:01:19.236Z,7.95
2022-10-21T01:03:49.624Z,5.78
2022-10-21T01:06:20.840Z,6.90
2022-10-21T01:08:48.963Z,8.45
2022-10-21T01:11:19.257Z,5.25
2022-10-21T01:14:10.464Z,7.68
2022-10-21T01:16:48.439Z,6.35
2022-10-21T01:19:34.868Z,9.68
2022-10-21T01:25:18.389Z,8.70
2022-10-21T01:27:55.471Z,8.52
2022-10-21T01:30:38.625Z,8.20
2022-10-21T01:33:39.772Z,7.35
2022-10-21T01:36:24.320Z,9.77
2022-10-21T01:39:07.353Z,5.45
2022-10-21T01:41:39.687Z,7.75
2022-10-21T01:44:16.024Z,8.63
2022-10-21T01:50:31.119Z,6.53
2022-10-21T01:53:02.949Z,6.53
2022-10-21T01:55:37.522Z,6.72
2022-10-21T01:58:09.099Z,8.43
2022-10-21T02:00:38.208Z,10.95
2022-10-21T02:03:09.629Z,6.22
2022-10-21T02:05:39.629Z,8.63
2022-10-21T02:08:07.979Z,7.38
2022-10-21T02:10:38.870Z,5.97
2022-10-21T02:13:11.083Z,8.38
2022-10-21T02:15:41.088Z,5.50
2022-10-21T02:18:21.089Z,7.18
2022-10-21T02:20:54.708Z,8.50
2022-10-21T02:23:30.487Z,6.88
2022-10-21T02:25:58.298Z,6.53
2022-10-21T02:28:26.029Z,5.55
2022-10-21T02:31:01.541Z,7.38
2022-10-21T02:33:39.408Z,6.60
2022-10-21T02:36:16.388Z,5.28
2022-10-21T02:38:49.870Z,7.25
2022-10-21T02:41:22.348Z,5.38
2022-10-21T02:43:54.850Z,5.10
2022-10-21T02:46:22.718Z,6.65
2022-10-21T02:48:50.409Z,5.22
2022-10-21T02:51:19.670Z,6.28
2022-10-21T02:53:47.399Z,5.80
2022-10-21T02:56:15.079Z,7.38
2022-10-21T02:58:43.047Z,7.28
2022-10-21T03:03:43.458Z,6.18
2022-10-21T03:08:40.309Z,6.97
2022-10-21T03:11:07.897Z,9.45
2022-10-21T03:13:35.526Z,8.00
2022-10-21T03:16:03.139Z,5.15
2022-10-21T03:18:30.899Z,6.35
2022-10-21T03:20:58.409Z,6.40
2022-10-21T03:23:26.034Z,7.68
2022-10-21T03:25:54.989Z,6.97
2022-10-21T03:28:22.706Z,7.28
2022-10-21T03:30:50.243Z,9.20
2022-10-21T03:33:17.866Z,6.00
2022-10-21T03:35:45.618Z,6.75
2022-10-21T03:38:13.271Z,8.27
2022-10-21T03:40:40.771Z,5.68
2022-10-21T03:43:09.920Z,7.90
2022-10-21T03:45:37.494Z,8.00
2022-10-21T03:48:05.338Z,5.93
2022-10-21T03:50:32.907Z,7.70
2022-10-21T03:53:02.399Z,7.43
2022-10-21T03:55:37.613Z,8.90
2022-10-21T03:58:05.227Z,7.63
2022-10-21T04:00:34.557Z,7.72
2022-10-21T04:03:02.139Z,6.18
2022-10-21T04:05:29.731Z,4.72
2022-10-21T04:07:57.293Z,7.63
2022-10-21T04:10:25.575Z,9.05
2022-10-21T04:12:53.209Z,6.35
2022-10-21T04:15:21.031Z,7.28
2022-10-21T04:17:50.028Z,7.10
2022-10-21T04:20:17.892Z,5.88
2022-10-21T04:22:45.458Z,6.22
2022-10-21T04:25:13.292Z,7.28
2022-10-21T04:27:40.836Z,5.80
2022-10-21T04:30:09.550Z,6.18
2022-10-21T04:32:37.618Z,9.25
2022-10-21T04:35:07.551Z,6.20
2022-10-21T04:37:35.412Z,7.10
2022-10-21T04:40:03.141Z,10.25
2022-10-21T04:42:30.654Z,6.57
2022-10-21T04:44:59.244Z,6.18
2022-10-21T04:47:27.129Z,4.80
2022-10-21T04:49:54.701Z,5.57
2022-10-21T04:52:23.828Z,5.68
2022-10-21T04:54:51.443Z,8.43
2022-10-21T04:57:20.607Z,5.57
2022-10-21T04:59:48.474Z,7.40
2022-10-21T05:02:16.634Z,5.43
2022-10-21T05:04:45.445Z,6.38
2022-10-21T05:07:13.013Z,7.88
2022-10-21T05:09:42.079Z,6.18
2022-10-21T05:12:09.640Z,6.90
2022-10-21T05:14:37.677Z,6.00
2022-10-21T05:17:05.229Z,6.57
2022-10-21T05:19:32.983Z,7.55
2022-10-21T05:22:00.506Z,6.60
2022-10-21T05:24:28.277Z,6.80
2022-10-21T05:26:57.311Z,12.77
2022-10-21T05:29:24.953Z,6.25
2022-10-21T05:31:52.742Z,7.57
2022-10-21T05:34:20.462Z,8.48
2022-10-21T05:36:49.041Z,6.47
2022-10-21T05:39:16.694Z,8.15
2022-10-21T05:41:47.102Z,9.30
2022-10-21T05:44:17.330Z,10.05
2022-10-21T05:46:44.920Z,9.32
2022-10-21T05:49:13.424Z,10.80
2022-10-21T05:51:41.173Z,12.43
2022-10-21T05:54:08.902Z,8.43
2022-10-21T05:56:36.751Z,14.70
2022-10-21T05:59:07.861Z,9.55
2022-10-21T06:01:39.791Z,10.40
2022-10-21T06:04:08.032Z,10.35
2022-10-21T06:06:35.704Z,11.73
2022-10-21T06:09:03.783Z,12.18
2022-10-21T06:11:31.721Z,11.18
2022-10-21T06:14:00.624Z,10.90
2022-10-21T06:16:28.395Z,11.15
2022-10-21T06:18:57.762Z,10.00
2022-10-21T06:21:25.392Z,11.52
2022-10-21T06:23:54.252Z,12.95
2022-10-21T06:26:22.102Z,28.65
2022-10-21T06:28:49.792Z,22.77
2022-10-21T06:31:20.680Z,18.08
2022-10-21T06:33:48.671Z,16.02
2022-10-21T06:36:17.692Z,19.02
2022-10-21T06:38:45.415Z,14.50
2022-10-21T06:41:14.366Z,14.57
2022-10-21T06:43:42.923Z,14.38
2022-10-21T06:46:13.278Z,11.95
2022-10-21T06:48:41.108Z,17.42
2022-10-21T06:51:12.215Z,13.85
2022-10-21T06:53:41.659Z,11.48
2022-10-21T06:56:11.671Z,7.95
2022-10-21T06:58:43.477Z,8.32
2022-10-21T07:01:27.446Z,11.40
2022-10-21T07:04:01.636Z,10.45
2022-10-21T07:06:29.649Z,8.38
2022-10-21T07:08:59.317Z,12.30
2022-10-21T07:11:27.723Z,9.07
2022-10-21T07:13:55.383Z,9.73
2022-10-21T07:16:25.216Z,14.15
2022-10-21T07:18:53.335Z,9.20
2022-10-21T07:21:22.638Z,8.40
2022-10-21T07:23:51.802Z,5.85
2022-10-21T07:26:21.652Z,7.05
2022-10-21T07:28:49.732Z,10.18
2022-10-21T07:33:51.337Z,9.77
2022-10-21T07:36:21.130Z,6.28
2022-10-21T07:38:50.222Z,7.32
2022-10-21T07:41:22.017Z,9.23
2022-10-21T07:43:50.617Z,7.75
2022-10-21T07:46:19.593Z,12.10
2022-10-21T07:48:47.365Z,9.38
2022-10-21T07:51:17.260Z,8.50
2022-10-21T07:53:44.976Z,9.93
2022-10-21T07:56:15.510Z,9.10
2022-10-21T07:58:47.045Z,9.52
2022-10-21T08:01:16.813Z,8.20
2022-10-21T08:03:45.187Z,9.45
2022-10-21T08:06:15.711Z,9.32
2022-10-21T08:08:44.483Z,8.98
2022-10-21T08:11:12.435Z,10.73
2022-10-21T08:13:41.682Z,10.07
2022-10-21T08:16:10.758Z,9.52
2022-10-21T08:18:38.281Z,11.05
2022-10-21T08:21:06.221Z,8.55
2022-10-21T08:23:33.849Z,7.18
2022-10-21T08:26:01.624Z,9.55
2022-10-21T08:28:30.627Z,7.88
2022-10-21T08:31:04.204Z,7.60
2022-10-21T08:33:33.417Z,8.85
2022-10-21T08:36:05.546Z,9.35
2022-10-21T08:38:33.660Z,8.77
2022-10-21T08:41:02.086Z,9.25
2022-10-21T08:43:33.164Z,10.18
2022-10-21T08:46:06.758Z,11.93
2022-10-21T08:48:40.151Z,10.23
2022-10-21T08:51:13.727Z,13.43
2022-10-21T08:53:47.579Z,8.70
2022-10-21T08:56:19.893Z,10.48
2022-10-21T08:58:50.653Z,8.98
2022-10-21T09:01:23.808Z,12.25
2022-10-21T09:03:58.450Z,12.60
2022-10-21T09:06:31.616Z,8.75
2022-10-21T09:09:11.163Z,12.05
2022-10-21T09:11:53.266Z,11.48
2022-10-21T09:14:49.745Z,11.90
2022-10-21T09:17:30.294Z,9.55
2022-10-21T09:20:08.054Z,11.70
2022-10-21T09:22:48.205Z,8.93
2022-10-21T09:25:22.087Z,11.93
2022-10-21T09:27:56.457Z,9.43
2022-10-21T09:30:25.733Z,13.18
2022-10-21T09:32:58.336Z,11.82
2022-10-21T09:35:34.150Z,11.88
2022-10-21T09:38:07.044Z,10.70
2022-10-21T09:40:35.123Z,10.55
2022-10-21T09:43:18.404Z,10.07
2022-10-21T09:45:47.412Z,9.50
2022-10-21T09:48:26.803Z,9.68
2022-10-21T09:51:00.172Z,9.93
2022-10-21T09:53:33.263Z,7.60
2022-10-21T09:56:04.006Z,10.73
2022-10-21T09:58:48.892Z,9.23
2022-10-21T10:01:18.434Z,8.57
2022-10-21T10:03:48.914Z,10.20
2022-10-21T10:06:32.674Z,11.07
2022-10-21T10:09:15.598Z,11.73
2022-10-21T10:11:55.393Z,12.65
2022-10-21T10:14:34.680Z,12.75
2022-10-21T10:17:27.213Z,11.95
2022-10-21T10:20:18.325Z,8.60
2022-10-21T10:23:07.868Z,8.23
2022-10-21T10:25:37.973Z,7.40
2022-10-21T10:28:18.783Z,9.20
2022-10-21T10:30:48.804Z,10.00
2022-10-21T10:33:19.822Z,7.32
2022-10-21T10:35:49.603Z,7.53
2022-10-21T10:38:26.613Z,7.70
2022-10-21T10:40:56.428Z,10.60
2022-10-21T10:43:29.484Z,9.30
2022-10-21T10:45:59.654Z,10.23
2022-10-21T10:48:33.875Z,8.90
2022-10-21T10:51:07.425Z,11.60
2022-10-21T10:53:38.654Z,14.15
2022-10-21T10:56:21.201Z,9.77
2022-10-21T10:58:54.294Z,9.20
2022-10-21T11:01:30.280Z,8.90
2022-10-21T11:04:11.656Z,8.07
2022-10-21T11:06:46.275Z,8.80
2022-10-21T11:09:20.083Z,9.82
2022-10-21T11:11:55.033Z,6.60
2022-10-21T11:14:23.615Z,7.95
2022-10-21T11:17:03.793Z,9.27
2022-10-21T11:19:41.204Z,7.22
2022-10-21T11:22:14.607Z,8.45
2022-10-21T11:25:04.773Z,9.65
2022-10-21T11:28:01.227Z,13.10
2022-10-21T11:30:40.194Z,9.10
2022-10-21T11:33:18.885Z,12.90
2022-10-21T11:35:59.043Z,11.93
2022-10-21T11:38:49.003Z,10.00
2022-10-21T11:41:31.269Z,8.95
2022-10-21T11:44:10.575Z,7.38
2022-10-21T11:46:52.146Z,8.98
2022-10-21T11:49:37.278Z,10.93
2022-10-21T11:52:22.834Z,9.13
2022-10-21T11:55:14.506Z,8.70
2022-10-21T11:57:53.347Z,8.43
2022-10-21T12:00:24.448Z,7.00
2022-10-21T12:03:19.042Z,7.00
2022-10-21T12:05:54.397Z,9.18
2022-10-21T12:08:27.635Z,7.93
2022-10-21T12:10:59.342Z,6.75
2022-10-21T12:13:31.629Z,6.35
2022-10-21T12:16:01.522Z,8.82
2022-10-21T12:18:30.696Z,7.72
2022-10-21T12:21:00.181Z,6.07
2022-10-21T12:23:31.461Z,6.15
2022-10-21T12:26:13.640Z,6.35
2022-10-21T12:28:49.756Z,6.70
2022-10-21T12:31:29.455Z,8.45
2022-10-21T12:33:58.076Z,7.82
2022-10-21T12:36:41.635Z,5.95
2022-10-21T12:39:16.568Z,6.22
2022-10-21T12:41:47.450Z,11.55
2022-10-21T12:44:23.683Z,6.57
2022-10-21T12:46:53.855Z,5.07
2022-10-21T12:49:28.279Z,9.30
2022-10-21T12:52:04.201Z,6.82
2022-10-21T12:54:42.435Z,7.43
2022-10-21T12:57:21.409Z,4.40
2022-10-21T12:59:50.713Z,5.18
2022-10-21T13:02:25.698Z,7.25
2022-10-21T13:04:58.155Z,7.78
2022-10-21T13:07:37.195Z,6.00
2022-10-21T13:10:24.916Z,4.65
2022-10-21T13:13:30.280Z,15.35
2022-10-21T13:16:01.259Z,4.88
2022-10-21T13:18:58.106Z,4.25
2022-10-21T13:21:36.316Z,6.72
2022-10-21T13:24:25.351Z,8.57
2022-10-21T13:26:55.924Z,8.98
2022-10-21T13:29:30.496Z,6.72
2022-10-21T13:32:33.829Z,6.97
2022-10-21T13:35:08.607Z,4.97
2022-10-21T13:37:39.597Z,7.47
2022-10-21T13:40:15.030Z,6.82
2022-10-21T13:42:47.571Z,5.47
2022-10-21T13:45:25.087Z,6.43
2022-10-21T13:48:12.341Z,8.68
2022-10-21T13:50:41.943Z,7.00
2022-10-21T13:53:24.946Z,6.22
2022-10-21T13:55:58.612Z,7.60
2022-10-21T13:58:27.922Z,9.85
2022-10-21T14:00:58.711Z,6.72
2022-10-21T14:03:28.498Z,6.78
2022-10-21T14:05:59.127Z,6.75
2022-10-21T14:08:30.199Z,7.28
2022-10-21T14:11:00.540Z,7.32
2022-10-21T14:13:33.273Z,8.20
2022-10-21T14:16:01.703Z,6.47
2022-10-21T14:18:37.287Z,7.80
2022-10-21T14:21:06.695Z,10.45
2022-10-21T14:23:34.933Z,7.95
2022-10-21T14:26:06.476Z,6.93
2022-10-21T14:28:35.694Z,5.22
2022-10-21T14:33:45.572Z,6.07
2022-10-21T14:36:18.934Z,7.20
2022-10-21T14:38:55.648Z,6.40
2022-10-21T14:41:26.459Z,8.63
2022-10-21T14:43:57.769Z,10.02
2022-10-21T14:46:25.577Z,7.25
2022-10-21T14:50:02.213Z,7.30
2022-10-21T14:52:35.233Z,10.00
2022-10-21T14:55:07.203Z,6.22
2022-10-21T14:57:39.922Z,8.63
2022-10-21T15:00:19.854Z,8.27
2022-10-21T15:02:49.031Z,7.20
2022-10-21T15:05:35.912Z,8.57
2022-10-21T15:08:32.724Z,7.10
2022-10-21T15:11:33.913Z,7.65
2022-10-21T15:14:19.372Z,12.60
2022-10-21T15:16:49.433Z,8.98
2022-10-21T15:19:20.093Z,8.75
2022-10-21T15:21:51.113Z,11.35
2022-10-21T15:24:25.183Z,8.20
2022-10-21T15:26:54.433Z,10.32
2022-10-21T15:29:34.402Z,9.45
2022-10-21T15:32:02.502Z,7.53
2022-10-21T15:34:30.252Z,11.15
2022-10-21T15:36:58.013Z,6.90
2022-10-21T15:39:27.221Z,15.30
2022-10-21T15:41:57.453Z,11.40
2022-10-21T15:44:27.652Z,8.38
2022-10-21T15:47:01.088Z,8.50
2022-10-21T15:49:32.589Z,8.15
2022-10-21T15:52:00.583Z,17.63
2022-10-21T15:54:29.761Z,7.63
2022-10-21T15:56:59.459Z,9.75
2022-10-21T15:59:29.443Z,10.18
2022-10-21T16:01:57.387Z,8.15
2022-10-21T16:04:25.475Z,6.95
2022-10-21T16:06:54.353Z,11.63
2022-10-21T16:09:24.197Z,7.25
2022-10-21T16:11:59.417Z,11.77
2022-10-21T16:14:29.624Z,13.00
2022-10-21T16:16:58.597Z,10.40
2022-10-21T16:19:26.474Z,10.75
2022-10-21T16:21:54.554Z,14.68
2022-10-21T16:24:22.319Z,9.90
2022-10-21T16:26:51.011Z,12.15
2022-10-21T16:29:22.104Z,10.88
2022-10-21T16:31:50.856Z,10.15
2022-10-21T16:34:19.042Z,10.60
2022-10-21T16:37:19.569Z,9.05
2022-10-21T16:39:47.494Z,7.38
2022-10-21T16:42:15.689Z,10.18
2022-10-21T16:44:46.233Z,7.80
2022-10-21T16:47:19.514Z,12.45
2022-10-21T16:49:48.154Z,16.48
2022-10-21T16:52:17.865Z,14.63
2022-10-21T16:54:48.584Z,11.65
2022-10-21T16:57:16.836Z,10.23
2022-10-21T16:59:46.416Z,11.25
2022-10-21T17:02:16.984Z,16.00
2022-10-21T17:04:45.794Z,13.50
2022-10-21T17:07:14.335Z,12.27
2022-10-21T17:09:42.934Z,14.20
2022-10-21T17:12:11.807Z,16.30
2022-10-21T17:14:39.844Z,15.07
2022-10-21T17:17:09.914Z,18.17
2022-10-21T17:19:37.938Z,17.75
2022-10-21T17:22:05.804Z,16.10
2022-10-21T17:24:33.804Z,20.63
2022-10-21T17:27:02.104Z,18.88
2022-10-21T17:29:29.955Z,19.00
2022-10-21T17:31:57.944Z,15.23
2022-10-21T17:34:30.251Z,18.13
2022-10-21T17:36:58.851Z,18.70
2022-10-21T17:39:27.270Z,17.48
2022-10-21T17:41:55.476Z,16.85
2022-10-21T17:44:23.681Z,18.52
2022-10-21T17:46:54.802Z,17.55
2022-10-21T17:49:24.004Z,20.40
2022-10-21T17:51:53.420Z,17.73
2022-10-21T17:54:25.948Z,18.58
2022-10-21T17:56:57.261Z,18.17
2022-10-21T17:59:25.822Z,22.45
2022-10-21T18:01:53.872Z,20.35
2022-10-21T18:04:21.900Z,16.13
2022-10-21T18:06:49.793Z,17.23
2022-10-21T18:09:19.245Z,19.45
2022-10-21T18:11:47.182Z,18.85
2022-10-21T18:14:15.042Z,24.63
2022-10-21T18:16:46.232Z,23.25
2022-10-21T18:19:14.519Z,21.48
2022-10-21T18:21:42.867Z,21.30
2022-10-21T18:24:12.621Z,24.52
2022-10-21T18:26:42.610Z,24.67
2022-10-21T18:29:10.686Z,20.88
2022-10-21T18:31:39.050Z,22.60
2022-10-21T18:34:09.486Z,19.35
2022-10-21T18:36:37.767Z,32.55
2022-10-21T18:39:06.681Z,20.00
2022-10-21T18:41:35.161Z,18.52
2022-10-21T18:44:08.569Z,17.15
2022-10-21T18:46:38.012Z,16.38
2022-10-21T18:49:07.988Z,20.83
2022-10-21T18:51:36.091Z,17.10
2022-10-21T18:54:05.082Z,16.52
2022-10-21T18:56:33.349Z,16.77
2022-10-21T18:59:01.881Z,15.95
2022-10-21T19:01:31.569Z,16.15
2022-10-21T19:03:59.813Z,19.23
2022-10-21T19:06:38.552Z,17.23
2022-10-21T19:09:09.562Z,17.75
2022-10-21T19:11:38.140Z,16.88
2022-10-21T19:14:08.506Z,15.80
2022-10-21T19:16:41.829Z,17.70
2022-10-21T19:19:11.011Z,17.35
2022-10-21T19:21:39.230Z,19.60
2022-10-21T19:24:07.590Z,20.38
2022-10-21T19:26:37.713Z,17.20
2022-10-21T19:29:08.379Z,15.05
2022-10-21T19:31:38.609Z,16.30
2022-10-21T19:34:10.469Z,15.52
2022-10-21T19:36:38.721Z,16.73
2022-10-21T19:39:10.254Z,14.43
2022-10-21T19:41:38.510Z,17.70
2022-10-21T19:44:07.331Z,15.07
2022-10-21T19:46:36.381Z,18.38
2022-10-21T19:49:06.372Z,16.08
2022-10-21T19:51:37.410Z,16.55
2022-10-21T19:54:07.920Z,15.77
2022-10-21T19:56:37.082Z,13.88
2022-10-21T19:59:06.200Z,16.25
2022-10-21T20:01:35.572Z,14.73
2022-10-21T20:04:04.842Z,16.20
2022-10-21T20:06:36.091Z,19.80
2022-10-21T20:09:06.707Z,16.73
2022-10-21T20:11:35.460Z,18.13
2022-10-21T20:14:04.630Z,15.63
2022-10-21T20:16:34.200Z,17.92
2022-10-21T20:19:03.442Z,17.75
2022-10-21T20:21:34.437Z,18.08
2022-10-21T20:24:05.711Z,16.27
2022-10-21T20:26:34.218Z,18.38
2022-10-21T20:29:02.818Z,14.57
2022-10-21T20:31:31.406Z,16.95
2022-10-21T20:33:59.700Z,14.90
2022-10-21T20:36:29.484Z,16.27
2022-10-21T20:38:59.282Z,15.38
2022-10-21T20:41:33.940Z,16.65
2022-10-21T20:44:03.436Z,15.30
2022-10-21T20:46:35.371Z,17.58
2022-10-21T20:49:05.591Z,15.60
2022-10-21T20:51:34.742Z,15.20
2022-10-21T20:54:04.193Z,19.25
2022-10-21T20:56:35.981Z,17.10
2022-10-21T20:59:05.760Z,15.13
2022-10-21T21:01:36.079Z,17.17
2022-10-21T21:04:06.550Z,19.52
2022-10-21T21:06:37.910Z,16.52
2022-10-21T21:11:56.089Z,13.82
2022-10-21T21:14:24.390Z,15.90
2022-10-21T21:16:52.500Z,19.02
2022-10-21T21:19:21.012Z,16.23
2022-10-21T21:21:49.213Z,15.80
2022-10-21T21:24:17.071Z,14.40
2022-10-21T21:26:45.089Z,14.40
2022-10-21T21:29:14.963Z,13.55
2022-10-21T21:31:44.508Z,13.35
2022-10-21T21:34:12.620Z,13.63
2022-10-21T21:36:40.690Z,13.85
2022-10-21T21:39:08.982Z,15.55
2022-10-21T21:41:37.312Z,10.95
2022-10-21T21:44:06.132Z,13.00
2022-10-21T21:46:35.718Z,12.50
2022-10-21T21:49:06.354Z,11.85
2022-10-21T21:51:36.950Z,10.80
2022-10-21T21:54:08.296Z,14.48
2022-10-21T21:56:36.644Z,15.13
2022-10-21T21:59:04.731Z,12.90
2022-10-21T22:01:32.850Z,12.18
2022-10-21T22:04:02.774Z,11.32
2022-10-21T22:06:32.770Z,13.13
2022-10-21T22:09:01.619Z,9.57
2022-10-21T22:11:32.291Z,13.93
2022-10-21T22:14:00.604Z,12.43
2022-10-21T22:16:30.565Z,13.82
2022-10-21T22:19:00.260Z,12.52
2022-10-21T22:21:31.199Z,11.75
2022-10-21T22:23:59.899Z,10.23
2022-10-21T22:26:28.090Z,10.82
2022-10-21T22:28:56.240Z,12.13
2022-10-21T22:31:29.112Z,11.07
2022-10-21T22:34:00.264Z,10.40
2022-10-21T22:36:29.804Z,12.63
2022-10-21T22:38:57.965Z,11.50
2022-10-21T22:41:25.971Z,11.85
2022-10-21T22:43:53.994Z,10.48
2022-10-21T22:46:29.776Z,10.60
2022-10-21T22:49:02.800Z,11.02
2022-10-21T22:51:32.510Z,10.07
2022-10-21T22:54:01.224Z,10.15
2022-10-21T22:56:29.851Z,11.73
2022-10-21T22:58:58.126Z,10.45
2022-10-21T23:01:30.524Z,9.52
2022-10-21T23:04:02.905Z,10.35
2022-10-21T23:06:33.942Z,8.77
2022-10-21T23:09:03.376Z,10.38
2022-10-21T23:11:31.831Z,10.00
2022-10-21T23:14:07.885Z,11.30
2022-10-21T23:16:37.466Z,8.77
2022-10-21T23:19:05.671Z,8.15
2022-10-21T23:21:35.569Z,11.43
2022-10-21T23:24:04.141Z,9.23
2022-10-21T23:26:32.002Z,9.60
2022-10-21T23:29:00.115Z,11.77
2022-10-21T23:31:27.946Z,14.55
2022-10-21T23:33:55.971Z,9.95
2022-10-21T23:38:58.500Z,11.55
2022-10-21T23:41:26.621Z,10.02
2022-10-21T23:43:54.802Z,11.75
2022-10-21T23:46:22.998Z,8.93
2022-10-21T23:48:50.952Z,9.88
2022-10-21T23:51:18.942Z,12.18
2022-10-21T23:53:47.000Z,10.15
2022-10-21T23:56:16.820Z,10.60
2022-10-21T23:58:44.761Z,11.57
